One Hundred Palms, California
Current Conditions -  °F | °C
As of 5:56 AM on Monday 24 Nov 2014 (Local Time) from KNJK Reporting Station
Few Clouds Few Clouds  
Wind Chill: 39°   Ceiling: Unl
Heat Index: 44°   Visibility: 10mi
Dew Point: 21°   Wind: 9mph
Humidity: 40%   Direction: 260°W
Pressure: 30.21"   Gusts: NA
Location:  33.093°N, 116.06°W
Report Text: KNJK 241356Z 26008KT 10SM FEW100 FEW200 07/M06 A3021 RMK AO2 SLP244 T00671061 $
Loading
Personal Weather Stations






























Interactive Weather Map New forecast layout! Learn more

10-Day Weather Forecast

Advertisements
Track Severe Weather on mobile